sensor_id;sensor_type;location;lat;lon;timestamp;P1;durP1;ratioP1;P2;durP2;ratioP2
1380;SDS011;684;48.342;10.096;2023-01-19T00:00:12;13.00;;;7.07;;
1380;SDS011;684;48.342;10.096;2023-01-19T00:02:42;13.33;;;7.73;;
1380;SDS011;684;48.342;10.096;2023-01-19T00:05:11;12.73;;;7.50;;
1380;SDS011;684;48.342;10.096;2023-01-19T00:07:38;14.60;;;7.90;;
1380;SDS011;684;48.342;10.096;2023-01-19T00:10:06;15.07;;;9.00;;
1380;SDS011;684;48.342;10.096;2023-01-19T00:12:33;16.17;;;8.90;;
1380;SDS011;684;48.342;10.096;2023-01-19T00:15:01;13.40;;;7.47;;
1380;SDS011;684;48.342;10.096;2023-01-19T00:17:28;13.07;;;7.83;;
1380;SDS011;684;48.342;10.096;2023-01-19T00:19:55;13.90;;;8.60;;
1380;SDS011;684;48.342;10.096;2023-01-19T00:22:22;15.10;;;8.47;;
1380;SDS011;684;48.342;10.096;2023-01-19T00:24:48;13.90;;;7.33;;
1380;SDS011;684;48.342;10.096;2023-01-19T00:27:15;13.77;;;8.13;;
1380;SDS011;684;48.342;10.096;2023-01-19T00:29:42;13.30;;;7.70;;
1380;SDS011;684;48.342;10.096;2023-01-19T00:32:10;17.00;;;9.30;;
1380;SDS011;684;48.342;10.096;2023-01-19T00:34:36;11.13;;;7.73;;
1380;SDS011;684;48.342;10.096;2023-01-19T00:37:13;12.20;;;7.80;;
1380;SDS011;684;48.342;10.096;2023-01-19T00:39:40;15.13;;;8.27;;
1380;SDS011;684;48.342;10.096;2023-01-19T00:42:07;13.70;;;9.20;;
1380;SDS011;684;48.342;10.096;2023-01-19T00:44:54;14.17;;;8.47;;
1380;SDS011;684;48.342;10.096;2023-01-19T00:47:22;11.10;;;7.60;;
1380;SDS011;684;48.342;10.096;2023-01-19T00:49:49;13.87;;;8.47;;
1380;SDS011;684;48.342;10.096;2023-01-19T00:52:16;14.40;;;8.00;;
1380;SDS011;684;48.342;10.096;2023-01-19T00:54:42;12.37;;;8.40;;
1380;SDS011;684;48.342;10.096;2023-01-19T00:57:09;13.40;;;7.97;;
1380;SDS011;684;48.342;10.096;2023-01-19T00:59:36;14.60;;;8.10;;
1380;SDS011;684;48.342;10.096;2023-01-19T01:02:02;12.87;;;8.20;;
1380;SDS011;684;48.342;10.096;2023-01-19T01:04:31;14.57;;;9.53;;
1380;SDS011;684;48.342;10.096;2023-01-19T01:06:57;16.70;;;9.37;;
1380;SDS011;684;48.342;10.096;2023-01-19T01:09:24;14.97;;;9.30;;
1380;SDS011;684;48.342;10.096;2023-01-19T01:11:51;17.93;;;9.23;;
1380;SDS011;684;48.342;10.096;2023-01-19T01:14:18;12.23;;;8.57;;
1380;SDS011;684;48.342;10.096;2023-01-19T01:16:45;13.97;;;9.20;;
1380;SDS011;684;48.342;10.096;2023-01-19T01:19:12;15.87;;;10.20;;
1380;SDS011;684;48.342;10.096;2023-01-19T01:21:40;15.70;;;8.60;;
1380;SDS011;684;48.342;10.096;2023-01-19T01:24:07;11.43;;;8.50;;
1380;SDS011;684;48.342;10.096;2023-01-19T01:26:34;12.80;;;8.70;;
1380;SDS011;684;48.342;10.096;2023-01-19T01:29:01;15.47;;;9.63;;
1380;SDS011;684;48.342;10.096;2023-01-19T01:31:28;18.07;;;8.90;;
1380;SDS011;684;48.342;10.096;2023-01-19T01:33:55;19.57;;;10.83;;
1380;SDS011;684;48.342;10.096;2023-01-19T01:36:22;14.20;;;10.27;;
1380;SDS011;684;48.342;10.096;2023-01-19T01:38:50;16.63;;;10.20;;
1380;SDS011;684;48.342;10.096;2023-01-19T01:41:17;18.27;;;10.80;;
1380;SDS011;684;48.342;10.096;2023-01-19T01:43:45;17.93;;;10.53;;
1380;SDS011;684;48.342;10.096;2023-01-19T01:46:13;17.13;;;9.80;;
1380;SDS011;684;48.342;10.096;2023-01-19T01:48:41;17.00;;;10.37;;
1380;SDS011;684;48.342;10.096;2023-01-19T01:51:14;14.57;;;10.27;;
1380;SDS011;684;48.342;10.096;2023-01-19T01:53:54;20.70;;;11.13;;
1380;SDS011;684;48.342;10.096;2023-01-19T01:56:31;17.10;;;9.53;;
1380;SDS011;684;48.342;10.096;2023-01-19T01:59:01;16.77;;;8.90;;
1380;SDS011;684;48.342;10.096;2023-01-19T02:01:31;15.77;;;10.07;;
1380;SDS011;684;48.342;10.096;2023-01-19T02:04:17;13.80;;;9.40;;
1380;SDS011;684;48.342;10.096;2023-01-19T02:06:44;12.73;;;9.33;;
1380;SDS011;684;48.342;10.096;2023-01-19T02:09:31;14.47;;;9.57;;
1380;SDS011;684;48.342;10.096;2023-01-19T02:12:18;15.97;;;8.73;;
1380;SDS011;684;48.342;10.096;2023-01-19T02:15:02;14.70;;;9.47;;
1380;SDS011;684;48.342;10.096;2023-01-19T02:17:29;15.33;;;9.53;;
1380;SDS011;684;48.342;10.096;2023-01-19T02:19:56;14.67;;;10.03;;
1380;SDS011;684;48.342;10.096;2023-01-19T02:22:23;23.80;;;10.37;;
1380;SDS011;684;48.342;10.096;2023-01-19T02:25:01;25.30;;;10.80;;
1380;SDS011;684;48.342;10.096;2023-01-19T02:27:28;16.00;;;10.10;;
1380;SDS011;684;48.342;10.096;2023-01-19T02:29:55;16.13;;;9.63;;
1380;SDS011;684;48.342;10.096;2023-01-19T02:32:23;16.30;;;10.00;;
1380;SDS011;684;48.342;10.096;2023-01-19T02:34:49;20.53;;;10.67;;
1380;SDS011;684;48.342;10.096;2023-01-19T02:37:17;18.57;;;10.40;;
1380;SDS011;684;48.342;10.096;2023-01-19T02:39:44;15.50;;;9.00;;
1380;SDS011;684;48.342;10.096;2023-01-19T02:42:18;18.07;;;10.00;;
1380;SDS011;684;48.342;10.096;2023-01-19T02:44:49;18.77;;;9.73;;
1380;SDS011;684;48.342;10.096;2023-01-19T02:47:18;16.63;;;9.77;;
1380;SDS011;684;48.342;10.096;2023-01-19T02:49:52;14.17;;;9.43;;
1380;SDS011;684;48.342;10.096;2023-01-19T02:52:19;15.23;;;10.10;;
1380;SDS011;684;48.342;10.096;2023-01-19T02:54:49;16.90;;;9.40;;
1380;SDS011;684;48.342;10.096;2023-01-19T02:57:36;14.10;;;10.23;;
1380;SDS011;684;48.342;10.096;2023-01-19T03:00:16;17.57;;;9.43;;
1380;SDS011;684;48.342;10.096;2023-01-19T03:02:54;17.30;;;10.70;;
1380;SDS011;684;48.342;10.096;2023-01-19T03:05:35;16.80;;;10.43;;
1380;SDS011;684;48.342;10.096;2023-01-19T03:08:12;15.30;;;10.50;;
1380;SDS011;684;48.342;10.096;2023-01-19T03:10:44;15.90;;;9.70;;
1380;SDS011;684;48.342;10.096;2023-01-19T03:13:18;15.30;;;10.73;;
1380;SDS011;684;48.342;10.096;2023-01-19T03:15:53;19.63;;;10.20;;
1380;SDS011;684;48.342;10.096;2023-01-19T03:18:24;17.30;;;11.03;;
1380;SDS011;684;48.342;10.096;2023-01-19T03:20:54;15.83;;;10.40;;
1380;SDS011;684;48.342;10.096;2023-01-19T03:23:25;15.47;;;10.07;;
1380;SDS011;684;48.342;10.096;2023-01-19T03:25:55;15.70;;;9.67;;
1380;SDS011;684;48.342;10.096;2023-01-19T03:28:25;14.30;;;8.90;;
1380;SDS011;684;48.342;10.096;2023-01-19T03:30:56;14.70;;;10.63;;
1380;SDS011;684;48.342;10.096;2023-01-19T03:33:27;17.43;;;10.47;;
1380;SDS011;684;48.342;10.096;2023-01-19T03:35:57;16.67;;;10.80;;
1380;SDS011;684;48.342;10.096;2023-01-19T03:38:28;19.70;;;10.73;;
1380;SDS011;684;48.342;10.096;2023-01-19T03:41:01;14.60;;;9.67;;
1380;SDS011;684;48.342;10.096;2023-01-19T03:43:30;13.70;;;9.17;;
1380;SDS011;684;48.342;10.096;2023-01-19T03:45:58;16.33;;;10.93;;
1380;SDS011;684;48.342;10.096;2023-01-19T03:48:26;18.27;;;10.50;;
1380;SDS011;684;48.342;10.096;2023-01-19T03:50:53;22.73;;;10.63;;
1380;SDS011;684;48.342;10.096;2023-01-19T03:53:20;14.63;;;9.80;;
1380;SDS011;684;48.342;10.096;2023-01-19T03:55:49;14.73;;;9.40;;
1380;SDS011;684;48.342;10.096;2023-01-19T03:58:18;16.73;;;11.13;;
1380;SDS011;684;48.342;10.096;2023-01-19T04:00:47;15.60;;;8.87;;
1380;SDS011;684;48.342;10.096;2023-01-19T04:03:14;15.00;;;9.47;;
1380;SDS011;684;48.342;10.096;2023-01-19T04:05:42;17.90;;;9.63;;
1380;SDS011;684;48.342;10.096;2023-01-19T04:08:09;16.67;;;9.60;;
1380;SDS011;684;48.342;10.096;2023-01-19T04:10:37;18.53;;;10.10;;
1380;SDS011;684;48.342;10.096;2023-01-19T04:13:04;16.67;;;9.60;;
1380;SDS011;684;48.342;10.096;2023-01-19T04:15:31;15.10;;;9.00;;
1380;SDS011;684;48.342;10.096;2023-01-19T04:17:59;16.10;;;9.67;;
1380;SDS011;684;48.342;10.096;2023-01-19T04:20:26;14.33;;;8.43;;
1380;SDS011;684;48.342;10.096;2023-01-19T04:22:57;17.67;;;8.73;;
1380;SDS011;684;48.342;10.096;2023-01-19T04:25:24;16.53;;;8.77;;
1380;SDS011;684;48.342;10.096;2023-01-19T04:27:51;13.47;;;8.70;;
1380;SDS011;684;48.342;10.096;2023-01-19T04:30:19;12.33;;;8.03;;
1380;SDS011;684;48.342;10.096;2023-01-19T04:32:46;14.90;;;8.57;;
1380;SDS011;684;48.342;10.096;2023-01-19T04:35:14;15.87;;;8.40;;
1380;SDS011;684;48.342;10.096;2023-01-19T04:37:41;14.30;;;8.27;;
1380;SDS011;684;48.342;10.096;2023-01-19T04:40:09;14.63;;;8.63;;
1380;SDS011;684;48.342;10.096;2023-01-19T04:42:37;16.80;;;8.37;;
1380;SDS011;684;48.342;10.096;2023-01-19T04:45:03;15.33;;;10.17;;
1380;SDS011;684;48.342;10.096;2023-01-19T04:47:31;14.83;;;9.30;;
1380;SDS011;684;48.342;10.096;2023-01-19T04:49:57;18.03;;;8.60;;
1380;SDS011;684;48.342;10.096;2023-01-19T04:52:25;13.90;;;9.13;;
1380;SDS011;684;48.342;10.096;2023-01-19T04:54:58;14.67;;;8.53;;
1380;SDS011;684;48.342;10.096;2023-01-19T04:57:25;14.20;;;9.10;;
1380;SDS011;684;48.342;10.096;2023-01-19T04:59:52;11.83;;;7.10;;
1380;SDS011;684;48.342;10.096;2023-01-19T05:02:19;12.47;;;8.20;;
1380;SDS011;684;48.342;10.096;2023-01-19T05:04:52;15.30;;;8.63;;
1380;SDS011;684;48.342;10.096;2023-01-19T05:07:19;12.73;;;8.20;;
1380;SDS011;684;48.342;10.096;2023-01-19T05:09:47;15.77;;;9.40;;
1380;SDS011;684;48.342;10.096;2023-01-19T05:12:14;17.83;;;9.00;;
1380;SDS011;684;48.342;10.096;2023-01-19T05:14:40;15.10;;;8.77;;
1380;SDS011;684;48.342;10.096;2023-01-19T05:17:07;15.70;;;8.27;;
1380;SDS011;684;48.342;10.096;2023-01-19T05:19:34;15.13;;;8.77;;
1380;SDS011;684;48.342;10.096;2023-01-19T05:22:01;15.90;;;9.07;;
1380;SDS011;684;48.342;10.096;2023-01-19T05:24:28;12.73;;;9.27;;
1380;SDS011;684;48.342;10.096;2023-01-19T05:26:56;17.97;;;9.40;;
1380;SDS011;684;48.342;10.096;2023-01-19T05:29:23;19.70;;;9.37;;
1380;SDS011;684;48.342;10.096;2023-01-19T05:31:50;15.00;;;8.67;;
1380;SDS011;684;48.342;10.096;2023-01-19T05:34:17;17.03;;;9.53;;
1380;SDS011;684;48.342;10.096;2023-01-19T05:36:44;15.40;;;9.37;;
1380;SDS011;684;48.342;10.096;2023-01-19T05:39:11;15.90;;;9.10;;
1380;SDS011;684;48.342;10.096;2023-01-19T05:41:38;15.57;;;8.43;;
1380;SDS011;684;48.342;10.096;2023-01-19T05:44:07;16.00;;;8.50;;
1380;SDS011;684;48.342;10.096;2023-01-19T05:46:34;15.73;;;9.77;;
1380;SDS011;684;48.342;10.096;2023-01-19T05:49:01;14.97;;;9.73;;
1380;SDS011;684;48.342;10.096;2023-01-19T05:51:29;15.63;;;10.27;;
1380;SDS011;684;48.342;10.096;2023-01-19T05:53:59;17.77;;;10.70;;
1380;SDS011;684;48.342;10.096;2023-01-19T05:56:26;14.40;;;9.70;;
1380;SDS011;684;48.342;10.096;2023-01-19T05:58:52;18.43;;;10.43;;
1380;SDS011;684;48.342;10.096;2023-01-19T06:01:21;14.60;;;9.13;;
1380;SDS011;684;48.342;10.096;2023-01-19T06:03:47;14.90;;;9.70;;
1380;SDS011;684;48.342;10.096;2023-01-19T06:06:14;15.27;;;9.40;;
1380;SDS011;684;48.342;10.096;2023-01-19T06:08:41;14.67;;;9.43;;
1380;SDS011;684;48.342;10.096;2023-01-19T06:11:08;15.53;;;10.07;;
1380;SDS011;684;48.342;10.096;2023-01-19T06:13:35;21.50;;;11.13;;
1380;SDS011;684;48.342;10.096;2023-01-19T06:16:04;15.73;;;10.67;;
1380;SDS011;684;48.342;10.096;2023-01-19T06:18:33;16.67;;;10.27;;
1380;SDS011;684;48.342;10.096;2023-01-19T06:21:04;17.23;;;9.73;;
1380;SDS011;684;48.342;10.096;2023-01-19T06:23:32;18.00;;;10.23;;
1380;SDS011;684;48.342;10.096;2023-01-19T06:25:59;16.90;;;11.17;;
1380;SDS011;684;48.342;10.096;2023-01-19T06:28:26;19.70;;;10.53;;
1380;SDS011;684;48.342;10.096;2023-01-19T06:30:53;14.70;;;9.20;;
1380;SDS011;684;48.342;10.096;2023-01-19T06:33:21;15.03;;;10.10;;
1380;SDS011;684;48.342;10.096;2023-01-19T06:35:50;15.23;;;9.97;;
1380;SDS011;684;48.342;10.096;2023-01-19T06:38:17;20.33;;;11.07;;
1380;SDS011;684;48.342;10.096;2023-01-19T06:40:44;18.30;;;11.57;;
1380;SDS011;684;48.342;10.096;2023-01-19T06:43:11;20.47;;;11.07;;
1380;SDS011;684;48.342;10.096;2023-01-19T06:45:38;20.80;;;12.03;;
1380;SDS011;684;48.342;10.096;2023-01-19T06:48:05;17.30;;;10.97;;
1380;SDS011;684;48.342;10.096;2023-01-19T06:50:31;17.13;;;11.57;;
1380;SDS011;684;48.342;10.096;2023-01-19T06:52:59;16.27;;;9.93;;
1380;SDS011;684;48.342;10.096;2023-01-19T06:55:26;17.20;;;10.57;;
1380;SDS011;684;48.342;10.096;2023-01-19T06:57:56;18.57;;;10.77;;
1380;SDS011;684;48.342;10.096;2023-01-19T07:00:23;23.03;;;11.50;;
1380;SDS011;684;48.342;10.096;2023-01-19T07:02:50;21.67;;;11.90;;
1380;SDS011;684;48.342;10.096;2023-01-19T07:05:17;18.80;;;11.30;;
1380;SDS011;684;48.342;10.096;2023-01-19T07:07:49;16.70;;;9.90;;
1380;SDS011;684;48.342;10.096;2023-01-19T07:10:18;17.17;;;10.07;;
1380;SDS011;684;48.342;10.096;2023-01-19T07:12:45;20.87;;;12.90;;
1380;SDS011;684;48.342;10.096;2023-01-19T07:15:12;18.00;;;12.17;;
1380;SDS011;684;48.342;10.096;2023-01-19T07:17:39;19.80;;;11.73;;
1380;SDS011;684;48.342;10.096;2023-01-19T07:20:07;20.43;;;12.60;;
1380;SDS011;684;48.342;10.096;2023-01-19T07:22:37;24.30;;;11.93;;
1380;SDS011;684;48.342;10.096;2023-01-19T07:25:04;20.50;;;12.40;;
1380;SDS011;684;48.342;10.096;2023-01-19T07:27:32;20.90;;;12.60;;
1380;SDS011;684;48.342;10.096;2023-01-19T07:29:59;17.87;;;12.77;;
1380;SDS011;684;48.342;10.096;2023-01-19T07:32:26;18.20;;;12.13;;
1380;SDS011;684;48.342;10.096;2023-01-19T07:34:53;18.57;;;12.03;;
1380;SDS011;684;48.342;10.096;2023-01-19T07:37:20;20.67;;;12.77;;
1380;SDS011;684;48.342;10.096;2023-01-19T07:39:47;18.53;;;11.80;;
1380;SDS011;684;48.342;10.096;2023-01-19T07:42:13;17.97;;;10.73;;
1380;SDS011;684;48.342;10.096;2023-01-19T07:44:42;17.17;;;11.53;;
1380;SDS011;684;48.342;10.096;2023-01-19T07:47:08;17.53;;;10.73;;
1380;SDS011;684;48.342;10.096;2023-01-19T07:49:36;16.00;;;10.90;;
1380;SDS011;684;48.342;10.096;2023-01-19T07:52:03;20.60;;;11.47;;
1380;SDS011;684;48.342;10.096;2023-01-19T07:54:30;21.23;;;12.57;;
1380;SDS011;684;48.342;10.096;2023-01-19T07:56:57;16.13;;;11.40;;
1380;SDS011;684;48.342;10.096;2023-01-19T07:59:24;18.93;;;11.27;;
1380;SDS011;684;48.342;10.096;2023-01-19T08:01:52;18.10;;;12.07;;
1380;SDS011;684;48.342;10.096;2023-01-19T08:04:19;17.63;;;11.73;;
1380;SDS011;684;48.342;10.096;2023-01-19T08:06:46;18.70;;;11.23;;
1380;SDS011;684;48.342;10.096;2023-01-19T08:09:13;15.80;;;10.20;;
1380;SDS011;684;48.342;10.096;2023-01-19T08:11:39;21.03;;;12.03;;
1380;SDS011;684;48.342;10.096;2023-01-19T08:14:06;18.23;;;11.50;;
1380;SDS011;684;48.342;10.096;2023-01-19T08:16:33;14.87;;;9.97;;
1380;SDS011;684;48.342;10.096;2023-01-19T08:19:01;15.07;;;9.73;;
1380;SDS011;684;48.342;10.096;2023-01-19T08:21:28;17.30;;;11.10;;
1380;SDS011;684;48.342;10.096;2023-01-19T08:23:55;14.90;;;9.63;;
1380;SDS011;684;48.342;10.096;2023-01-19T08:26:25;15.60;;;10.63;;
1380;SDS011;684;48.342;10.096;2023-01-19T08:28:53;17.23;;;11.27;;
1380;SDS011;684;48.342;10.096;2023-01-19T08:31:21;14.80;;;12.03;;
1380;SDS011;684;48.342;10.096;2023-01-19T08:33:49;12.83;;;10.07;;
1380;SDS011;684;48.342;10.096;2023-01-19T08:36:17;15.43;;;10.60;;
1380;SDS011;684;48.342;10.096;2023-01-19T08:38:44;15.10;;;9.90;;
1380;SDS011;684;48.342;10.096;2023-01-19T08:41:11;17.07;;;10.90;;
1380;SDS011;684;48.342;10.096;2023-01-19T08:43:40;15.90;;;9.87;;
1380;SDS011;684;48.342;10.096;2023-01-19T08:46:07;15.10;;;11.10;;
1380;SDS011;684;48.342;10.096;2023-01-19T08:48:33;16.93;;;10.50;;
1380;SDS011;684;48.342;10.096;2023-01-19T08:51:00;14.43;;;10.27;;
1380;SDS011;684;48.342;10.096;2023-01-19T08:53:28;13.93;;;10.70;;
1380;SDS011;684;48.342;10.096;2023-01-19T08:55:55;16.63;;;10.80;;
1380;SDS011;684;48.342;10.096;2023-01-19T08:58:24;16.30;;;11.57;;
1380;SDS011;684;48.342;10.096;2023-01-19T09:00:51;16.00;;;10.50;;
1380;SDS011;684;48.342;10.096;2023-01-19T09:03:18;16.17;;;11.13;;
1380;SDS011;684;48.342;10.096;2023-01-19T09:05:46;16.17;;;11.10;;
1380;SDS011;684;48.342;10.096;2023-01-19T09:08:14;16.77;;;11.77;;
1380;SDS011;684;48.342;10.096;2023-01-19T09:10:44;16.80;;;11.50;;
1380;SDS011;684;48.342;10.096;2023-01-19T09:13:12;15.90;;;11.47;;
1380;SDS011;684;48.342;10.096;2023-01-19T09:15:40;15.47;;;11.80;;
1380;SDS011;684;48.342;10.096;2023-01-19T09:18:08;15.40;;;11.33;;
1380;SDS011;684;48.342;10.096;2023-01-19T09:20:37;17.43;;;11.73;;
1380;SDS011;684;48.342;10.096;2023-01-19T09:23:06;16.83;;;12.43;;
1380;SDS011;684;48.342;10.096;2023-01-19T09:25:34;15.23;;;10.80;;
1380;SDS011;684;48.342;10.096;2023-01-19T09:28:03;14.53;;;10.30;;
1380;SDS011;684;48.342;10.096;2023-01-19T09:30:29;14.10;;;10.03;;
1380;SDS011;684;48.342;10.096;2023-01-19T09:33:00;13.27;;;10.70;;
1380;SDS011;684;48.342;10.096;2023-01-19T09:35:28;15.90;;;11.30;;
1380;SDS011;684;48.342;10.096;2023-01-19T09:37:55;16.47;;;10.77;;
1380;SDS011;684;48.342;10.096;2023-01-19T09:40:22;15.53;;;11.50;;
1380;SDS011;684;48.342;10.096;2023-01-19T09:42:51;14.87;;;10.67;;
1380;SDS011;684;48.342;10.096;2023-01-19T09:45:26;15.43;;;9.97;;
1380;SDS011;684;48.342;10.096;2023-01-19T09:47:59;15.10;;;11.33;;
1380;SDS011;684;48.342;10.096;2023-01-19T09:50:28;15.03;;;10.70;;
1380;SDS011;684;48.342;10.096;2023-01-19T09:53:01;15.20;;;10.87;;
1380;SDS011;684;48.342;10.096;2023-01-19T09:55:31;14.77;;;10.80;;
1380;SDS011;684;48.342;10.096;2023-01-19T09:57:58;15.20;;;10.40;;
1380;SDS011;684;48.342;10.096;2023-01-19T10:00:26;14.90;;;10.27;;
1380;SDS011;684;48.342;10.096;2023-01-19T10:02:55;16.63;;;10.00;;
1380;SDS011;684;48.342;10.096;2023-01-19T10:05:28;13.50;;;9.20;;
1380;SDS011;684;48.342;10.096;2023-01-19T10:08:00;16.60;;;10.23;;
1380;SDS011;684;48.342;10.096;2023-01-19T10:10:35;16.03;;;9.97;;
1380;SDS011;684;48.342;10.096;2023-01-19T10:13:13;14.20;;;8.83;;
1380;SDS011;684;48.342;10.096;2023-01-19T10:15:57;15.47;;;9.57;;
1380;SDS011;684;48.342;10.096;2023-01-19T10:18:39;13.30;;;10.47;;
1380;SDS011;684;48.342;10.096;2023-01-19T10:21:12;14.67;;;9.90;;
1380;SDS011;684;48.342;10.096;2023-01-19T10:23:42;17.03;;;10.67;;
1380;SDS011;684;48.342;10.096;2023-01-19T10:26:14;16.20;;;10.50;;
1380;SDS011;684;48.342;10.096;2023-01-19T10:28:43;15.70;;;9.40;;
1380;SDS011;684;48.342;10.096;2023-01-19T10:31:13;14.70;;;10.07;;
1380;SDS011;684;48.342;10.096;2023-01-19T10:33:43;13.77;;;9.87;;
1380;SDS011;684;48.342;10.096;2023-01-19T10:36:15;14.00;;;9.60;;
1380;SDS011;684;48.342;10.096;2023-01-19T10:38:43;13.70;;;9.50;;
1380;SDS011;684;48.342;10.096;2023-01-19T10:41:12;13.80;;;11.30;;
1380;SDS011;684;48.342;10.096;2023-01-19T10:43:43;16.43;;;10.03;;
1380;SDS011;684;48.342;10.096;2023-01-19T10:46:16;13.70;;;10.20;;
1380;SDS011;684;48.342;10.096;2023-01-19T10:48:48;12.63;;;9.83;;
1380;SDS011;684;48.342;10.096;2023-01-19T10:51:17;16.27;;;10.17;;
1380;SDS011;684;48.342;10.096;2023-01-19T10:53:51;18.00;;;10.33;;
1380;SDS011;684;48.342;10.096;2023-01-19T10:56:26;13.20;;;9.03;;
1380;SDS011;684;48.342;10.096;2023-01-19T10:58:58;13.30;;;9.40;;
1380;SDS011;684;48.342;10.096;2023-01-19T11:01:27;14.40;;;9.33;;
1380;SDS011;684;48.342;10.096;2023-01-19T11:03:55;15.00;;;9.40;;
1380;SDS011;684;48.342;10.096;2023-01-19T11:06:29;14.50;;;9.87;;
1380;SDS011;684;48.342;10.096;2023-01-19T11:09:14;13.30;;;9.50;;
1380;SDS011;684;48.342;10.096;2023-01-19T11:11:43;14.70;;;9.87;;
1380;SDS011;684;48.342;10.096;2023-01-19T11:14:13;13.80;;;9.77;;
1380;SDS011;684;48.342;10.096;2023-01-19T11:16:46;12.33;;;8.80;;
1380;SDS011;684;48.342;10.096;2023-01-19T11:19:16;13.03;;;9.33;;
1380;SDS011;684;48.342;10.096;2023-01-19T11:21:45;12.53;;;8.40;;
1380;SDS011;684;48.342;10.096;2023-01-19T11:24:12;13.40;;;9.23;;
1380;SDS011;684;48.342;10.096;2023-01-19T11:26:41;13.80;;;9.87;;
1380;SDS011;684;48.342;10.096;2023-01-19T11:29:14;14.33;;;9.63;;
1380;SDS011;684;48.342;10.096;2023-01-19T11:31:43;12.60;;;7.80;;
1380;SDS011;684;48.342;10.096;2023-01-19T11:34:23;11.03;;;7.13;;
1380;SDS011;684;48.342;10.096;2023-01-19T11:36:55;12.53;;;8.53;;
1380;SDS011;684;48.342;10.096;2023-01-19T11:39:24;16.47;;;7.50;;
1380;SDS011;684;48.342;10.096;2023-01-19T11:41:53;12.23;;;8.87;;
1380;SDS011;684;48.342;10.096;2023-01-19T11:44:22;15.90;;;8.90;;
1380;SDS011;684;48.342;10.096;2023-01-19T11:46:54;12.43;;;7.87;;
1380;SDS011;684;48.342;10.096;2023-01-19T11:49:24;15.77;;;9.17;;
1380;SDS011;684;48.342;10.096;2023-01-19T11:51:57;13.37;;;9.57;;
1380;SDS011;684;48.342;10.096;2023-01-19T11:54:30;11.80;;;7.37;;
1380;SDS011;684;48.342;10.096;2023-01-19T11:57:01;12.67;;;8.97;;
1380;SDS011;684;48.342;10.096;2023-01-19T11:59:37;14.30;;;8.93;;
1380;SDS011;684;48.342;10.096;2023-01-19T12:02:13;12.10;;;8.07;;
1380;SDS011;684;48.342;10.096;2023-01-19T12:04:49;12.27;;;8.60;;
1380;SDS011;684;48.342;10.096;2023-01-19T12:07:21;12.87;;;9.80;;
1380;SDS011;684;48.342;10.096;2023-01-19T12:09:52;11.70;;;7.60;;
1380;SDS011;684;48.342;10.096;2023-01-19T12:12:24;12.83;;;8.47;;
1380;SDS011;684;48.342;10.096;2023-01-19T12:14:55;12.10;;;8.90;;
1380;SDS011;684;48.342;10.096;2023-01-19T12:17:27;13.80;;;9.50;;
1380;SDS011;684;48.342;10.096;2023-01-19T12:19:58;13.00;;;9.87;;
1380;SDS011;684;48.342;10.096;2023-01-19T12:22:32;16.83;;;11.77;;
1380;SDS011;684;48.342;10.096;2023-01-19T12:25:10;15.67;;;11.13;;
1380;SDS011;684;48.342;10.096;2023-01-19T12:27:42;12.60;;;9.13;;
1380;SDS011;684;48.342;10.096;2023-01-19T12:30:14;16.17;;;10.00;;
1380;SDS011;684;48.342;10.096;2023-01-19T12:32:45;11.33;;;8.03;;
1380;SDS011;684;48.342;10.096;2023-01-19T12:38:21;14.67;;;9.13;;
1380;SDS011;684;48.342;10.096;2023-01-19T12:41:23;12.70;;;8.57;;
1380;SDS011;684;48.342;10.096;2023-01-19T12:46:47;12.63;;;9.33;;
1380;SDS011;684;48.342;10.096;2023-01-19T12:49:21;13.70;;;8.70;;
1380;SDS011;684;48.342;10.096;2023-01-19T12:51:52;11.77;;;9.17;;
1380;SDS011;684;48.342;10.096;2023-01-19T12:54:35;12.77;;;8.23;;
1380;SDS011;684;48.342;10.096;2023-01-19T12:57:07;8.20;;;6.23;;
1380;SDS011;684;48.342;10.096;2023-01-19T12:59:41;11.57;;;7.60;;
1380;SDS011;684;48.342;10.096;2023-01-19T13:05:20;11.10;;;7.43;;
1380;SDS011;684;48.342;10.096;2023-01-19T13:10:52;10.90;;;6.90;;
1380;SDS011;684;48.342;10.096;2023-01-19T13:13:38;12.47;;;7.87;;
1380;SDS011;684;48.342;10.096;2023-01-19T13:19:13;12.17;;;8.33;;
1380;SDS011;684;48.342;10.096;2023-01-19T13:21:44;10.97;;;7.37;;
1380;SDS011;684;48.342;10.096;2023-01-19T13:24:12;11.90;;;7.83;;
1380;SDS011;684;48.342;10.096;2023-01-19T13:26:41;14.10;;;8.67;;
1380;SDS011;684;48.342;10.096;2023-01-19T13:29:21;11.83;;;7.43;;
1380;SDS011;684;48.342;10.096;2023-01-19T13:31:51;10.67;;;7.07;;
1380;SDS011;684;48.342;10.096;2023-01-19T13:34:26;12.90;;;7.67;;
1380;SDS011;684;48.342;10.096;2023-01-19T13:36:56;12.90;;;8.00;;
1380;SDS011;684;48.342;10.096;2023-01-19T13:39:26;13.03;;;8.93;;
1380;SDS011;684;48.342;10.096;2023-01-19T13:41:55;12.67;;;7.70;;
1380;SDS011;684;48.342;10.096;2023-01-19T13:44:24;13.73;;;8.30;;
1380;SDS011;684;48.342;10.096;2023-01-19T13:46:53;11.33;;;6.27;;
1380;SDS011;684;48.342;10.096;2023-01-19T13:49:25;11.47;;;6.90;;
1380;SDS011;684;48.342;10.096;2023-01-19T13:52:12;13.30;;;8.00;;
1380;SDS011;684;48.342;10.096;2023-01-19T13:54:47;18.17;;;8.77;;
1380;SDS011;684;48.342;10.096;2023-01-19T13:57:21;20.77;;;11.47;;
1380;SDS011;684;48.342;10.096;2023-01-19T13:59:59;22.40;;;12.10;;
1380;SDS011;684;48.342;10.096;2023-01-19T14:02:31;14.70;;;7.93;;
1380;SDS011;684;48.342;10.096;2023-01-19T14:05:10;13.77;;;7.40;;
1380;SDS011;684;48.342;10.096;2023-01-19T14:07:39;10.60;;;6.20;;
1380;SDS011;684;48.342;10.096;2023-01-19T14:10:10;11.83;;;6.77;;
1380;SDS011;684;48.342;10.096;2023-01-19T14:12:40;11.00;;;7.20;;
1380;SDS011;684;48.342;10.096;2023-01-19T14:15:07;11.13;;;6.00;;
1380;SDS011;684;48.342;10.096;2023-01-19T14:17:38;11.77;;;6.50;;
1380;SDS011;684;48.342;10.096;2023-01-19T14:20:06;11.87;;;6.33;;
1380;SDS011;684;48.342;10.096;2023-01-19T14:22:54;14.30;;;6.90;;
1380;SDS011;684;48.342;10.096;2023-01-19T14:25:27;13.70;;;6.90;;
1380;SDS011;684;48.342;10.096;2023-01-19T14:30:55;10.13;;;6.07;;
1380;SDS011;684;48.342;10.096;2023-01-19T14:33:32;8.90;;;5.40;;
1380;SDS011;684;48.342;10.096;2023-01-19T14:36:10;11.10;;;5.70;;
1380;SDS011;684;48.342;10.096;2023-01-19T14:38:54;9.27;;;5.57;;
1380;SDS011;684;48.342;10.096;2023-01-19T14:41:23;11.23;;;6.50;;
1380;SDS011;684;48.342;10.096;2023-01-19T14:43:54;9.37;;;5.47;;
1380;SDS011;684;48.342;10.096;2023-01-19T14:46:21;12.70;;;6.37;;
1380;SDS011;684;48.342;10.096;2023-01-19T14:48:49;10.43;;;6.20;;
1380;SDS011;684;48.342;10.096;2023-01-19T14:51:20;10.60;;;6.90;;
1380;SDS011;684;48.342;10.096;2023-01-19T14:53:49;11.33;;;6.77;;
1380;SDS011;684;48.342;10.096;2023-01-19T14:56:29;9.80;;;6.03;;
1380;SDS011;684;48.342;10.096;2023-01-19T14:58:58;12.60;;;6.20;;
1380;SDS011;684;48.342;10.096;2023-01-19T15:01:27;15.87;;;6.67;;
1380;SDS011;684;48.342;10.096;2023-01-19T15:03:54;12.43;;;6.67;;
1380;SDS011;684;48.342;10.096;2023-01-19T15:06:21;8.30;;;5.20;;
1380;SDS011;684;48.342;10.096;2023-01-19T15:08:49;10.17;;;5.40;;
1380;SDS011;684;48.342;10.096;2023-01-19T15:11:19;10.87;;;5.70;;
1380;SDS011;684;48.342;10.096;2023-01-19T15:13:49;9.83;;;5.40;;
1380;SDS011;684;48.342;10.096;2023-01-19T15:16:16;12.93;;;7.30;;
1380;SDS011;684;48.342;10.096;2023-01-19T15:18:44;10.33;;;6.43;;
1380;SDS011;684;48.342;10.096;2023-01-19T15:21:11;11.13;;;6.07;;
1380;SDS011;684;48.342;10.096;2023-01-19T15:23:40;10.10;;;5.70;;
1380;SDS011;684;48.342;10.096;2023-01-19T15:26:09;12.00;;;6.77;;
1380;SDS011;684;48.342;10.096;2023-01-19T15:28:41;12.33;;;8.10;;